Time;durP1;ratioP1;P1;durP2;ratioP2;P2;SDS_P1;SDS_P2;PMS_P1;PMS_P2;Temp;Humidity;BMP_temperature;BMP_pressure;BME280_temperature;BME280_humidity;BME280_pressure;Samples;Min_cycle;Max_cycle;Signal;HPM_P1;HPM_P2
2022/04/19 00:00:42;;;;;;;2.43;2.23;;;8.90;49.50;;;;;;934073;152;27360;-74
2022/04/19 00:03:06;;;;;;;2.00;1.77;;;8.90;49.50;;;;;;934634;152;27486;-74
2022/04/19 00:05:33;;;;;;;2.03;1.83;;;8.90;49.80;;;;;;934069;151;27394;-74
2022/04/19 00:07:59;;;;;;;1.73;1.63;;;8.80;49.80;;;;;;934288;152;27316;-73
2022/04/19 00:10:29;;;;;;;3.43;2.10;;;8.80;50.00;;;;;;935562;152;27351;-74
2022/04/19 00:12:58;;;;;;;6.73;1.87;;;8.80;50.30;;;;;;934980;151;27448;-74
2022/04/19 00:15:27;;;;;;;2.10;1.73;;;8.70;50.40;;;;;;934220;151;27460;-74
2022/04/19 00:17:51;;;;;;;1.60;1.50;;;8.70;50.60;;;;;;933611;152;28347;-74
2022/04/19 00:20:18;;;;;;;2.03;1.93;;;8.70;50.80;;;;;;932205;152;27319;-73
2022/04/19 00:22:44;;;;;;;2.00;1.67;;;8.60;51.00;;;;;;934467;152;27411;-74
2022/04/19 00:25:12;;;;;;;1.97;1.87;;;8.60;51.10;;;;;;932769;152;27709;-74
2022/04/19 00:27:38;;;;;;;1.93;1.70;;;8.60;51.20;;;;;;933531;151;27863;-74
2022/04/19 00:30:04;;;;;;;2.33;2.13;;;8.60;51.60;;;;;;934230;151;27462;-74
2022/04/19 00:32:31;;;;;;;3.00;1.73;;;8.60;51.60;;;;;;934807;151;27318;-73
2022/04/19 00:34:59;;;;;;;3.27;1.77;;;8.50;51.70;;;;;;933330;152;27371;-74
2022/04/19 00:37:24;;;;;;;1.73;1.63;;;8.50;51.70;;;;;;935791;152;27433;-74
2022/04/19 00:39:50;;;;;;;1.57;1.47;;;8.50;51.80;;;;;;931947;149;27422;-74
2022/04/19 00:42:17;;;;;;;2.00;1.90;;;8.40;51.80;;;;;;931630;149;27505;-74
2022/04/19 00:44:44;;;;;;;2.97;1.70;;;8.40;51.80;;;;;;934525;149;27849;-74
2022/04/19 00:47:10;;;;;;;2.30;1.80;;;8.40;51.90;;;;;;933282;149;27282;-74
2022/04/19 00:49:37;;;;;;;2.00;1.80;;;8.30;52.00;;;;;;933267;149;27356;-74
2022/04/19 00:52:03;;;;;;;1.60;1.50;;;8.30;52.10;;;;;;931797;149;27473;-73
2022/04/19 00:54:30;;;;;;;2.00;1.90;;;8.20;52.20;;;;;;933530;149;27375;-74
2022/04/19 00:56:57;;;;;;;2.13;1.70;;;8.20;52.30;;;;;;931909;149;28435;-74
2022/04/19 00:59:24;;;;;;;2.20;2.00;;;8.10;52.40;;;;;;931942;149;27375;-74
2022/04/19 01:01:50;;;;;;;3.77;2.20;;;8.10;52.60;;;;;;932669;149;27319;-74
2022/04/19 01:04:16;;;;;;;2.37;2.10;;;8.10;52.80;;;;;;932852;149;27395;-74
2022/04/19 01:06:43;;;;;;;2.47;2.17;;;8.00;52.70;;;;;;931347;149;27371;-74
2022/04/19 01:09:09;;;;;;;2.83;2.27;;;8.00;53.00;;;;;;931838;149;27472;-74
2022/04/19 01:14:21;;;;;;;2.60;1.97;;;7.90;53.20;;;;;;934674;149;27412;-73
2022/04/19 01:16:48;;;;;;;2.37;2.17;;;7.90;53.20;;;;;;934052;149;27779;-74
2022/04/19 01:19:17;;;;;;;2.33;2.13;;;7.90;53.40;;;;;;933466;149;27395;-73
2022/04/19 01:21:49;;;;;;;2.50;2.10;;;7.90;53.60;;;;;;931475;149;27399;-73
2022/04/19 01:24:18;;;;;;;2.33;2.23;;;7.80;53.60;;;;;;933192;149;27441;-74
2022/04/19 01:26:45;;;;;;;2.77;2.23;;;7.80;53.60;;;;;;934847;149;27368;-74
2022/04/19 01:29:11;;;;;;;2.27;2.07;;;7.80;53.60;;;;;;934375;149;27472;-74
2022/04/19 01:31:38;;;;;;;2.43;1.90;;;7.80;53.60;;;;;;932093;149;27467;-74
2022/04/19 01:34:04;;;;;;;2.47;1.87;;;7.80;53.60;;;;;;932484;149;27338;-74
2022/04/19 01:36:31;;;;;;;2.77;2.47;;;7.80;53.70;;;;;;934818;149;27749;-74
2022/04/19 01:38:58;;;;;;;2.37;2.17;;;7.80;53.90;;;;;;932583;149;27810;-73
2022/04/19 01:41:25;;;;;;;1.90;1.80;;;7.80;53.90;;;;;;933260;152;27381;-74
2022/04/19 01:43:51;;;;;;;2.40;2.20;;;7.70;53.90;;;;;;934498;152;27370;-74
2022/04/19 01:46:17;;;;;;;2.07;1.97;;;7.70;54.00;;;;;;934749;152;27319;-74
2022/04/19 01:48:44;;;;;;;3.30;2.17;;;7.60;53.90;;;;;;934527;152;27344;-74
2022/04/19 01:51:11;;;;;;;2.13;1.93;;;7.60;53.90;;;;;;936726;152;27319;-74
2022/04/19 01:53:37;;;;;;;2.47;2.20;;;7.50;53.90;;;;;;937266;152;27346;-74
2022/04/19 01:56:04;;;;;;;3.00;2.27;;;7.50;53.30;;;;;;935507;152;27474;-74
2022/04/19 01:58:31;;;;;;;2.23;2.10;;;7.40;53.90;;;;;;936711;152;27481;-74
2022/04/19 02:00:57;;;;;;;3.27;2.30;;;7.40;54.00;;;;;;936476;152;27342;-74
2022/04/19 02:03:23;;;;;;;1.83;1.73;;;7.30;54.30;;;;;;935690;152;27338;-74
2022/04/19 02:05:50;;;;;;;2.00;1.90;;;7.30;54.40;;;;;;934799;151;27422;-74
2022/04/19 02:08:17;;;;;;;2.00;1.87;;;7.20;54.40;;;;;;934536;151;27982;-74
2022/04/19 02:10:43;;;;;;;2.00;1.90;;;7.20;54.60;;;;;;934276;151;27869;-74
2022/04/19 02:13:10;;;;;;;2.03;1.90;;;7.10;54.50;;;;;;935452;152;27425;-74
2022/04/19 02:15:36;;;;;;;2.20;2.00;;;7.10;54.60;;;;;;935136;152;27348;-75
2022/04/19 02:18:04;;;;;;;1.80;1.70;;;7.10;54.70;;;;;;934006;152;27342;-75
2022/04/19 02:20:30;;;;;;;2.23;2.00;;;7.00;54.80;;;;;;934722;152;27733;-75
2022/04/19 02:22:56;;;;;;;3.67;1.77;;;7.00;54.80;;;;;;935959;152;27487;-75
2022/04/19 02:25:26;;;;;;;2.37;2.10;;;6.90;54.90;;;;;;934569;152;27344;-75
2022/04/19 02:27:49;;;;;;;2.23;1.80;;;6.90;54.90;;;;;;933853;152;27371;-75
2022/04/19 02:30:17;;;;;;;1.97;1.87;;;6.90;55.00;;;;;;935251;151;27345;-75
2022/04/19 02:32:45;;;;;;;2.00;1.90;;;6.80;55.00;;;;;;934168;151;27347;-75
2022/04/19 02:35:14;;;;;;;2.47;1.70;;;6.80;55.10;;;;;;933023;152;27467;-75
2022/04/19 02:37:39;;;;;;;2.03;1.87;;;6.70;55.10;;;;;;935781;152;27427;-76
2022/04/19 02:40:05;;;;;;;2.00;1.90;;;6.70;55.10;;;;;;935140;149;27316;-76
2022/04/19 02:42:32;;;;;;;1.87;1.77;;;6.60;55.10;;;;;;933910;149;28017;-76
2022/04/19 02:45:03;;;;;;;2.97;1.90;;;6.60;55.20;;;;;;934179;149;27419;-76
2022/04/19 02:47:25;;;;;;;2.60;2.00;;;6.50;55.20;;;;;;932831;149;27417;-77
2022/04/19 02:49:52;;;;;;;1.67;1.57;;;6.50;55.30;;;;;;932579;149;27380;-76
2022/04/19 02:52:18;;;;;;;2.57;1.80;;;6.50;55.30;;;;;;930704;149;27343;-76
2022/04/19 02:54:45;;;;;;;2.30;2.10;;;6.40;55.40;;;;;;933835;149;27945;-76
2022/04/19 02:57:11;;;;;;;2.30;2.10;;;6.40;55.30;;;;;;933778;149;27313;-76
2022/04/19 02:59:38;;;;;;;2.23;1.93;;;6.40;56.20;;;;;;932351;149;27319;-76
2022/04/19 03:02:05;;;;;;;2.47;2.00;;;6.30;55.70;;;;;;933722;149;27382;-76
2022/04/19 03:04:31;;;;;;;2.40;2.20;;;6.30;55.80;;;;;;935128;149;27495;-74
2022/04/19 03:06:58;;;;;;;2.83;2.20;;;6.30;55.90;;;;;;932486;149;28008;-74
2022/04/19 03:09:24;;;;;;;2.43;2.23;;;6.30;55.30;;;;;;932626;149;27413;-74
2022/04/19 03:11:51;;;;;;;2.43;1.97;;;6.20;55.90;;;;;;932820;149;27346;-74
2022/04/19 03:14:18;;;;;;;2.57;2.27;;;6.20;56.00;;;;;;933279;149;27480;-74
2022/04/19 03:16:44;;;;;;;2.20;2.00;;;6.20;56.00;;;;;;931629;149;27890;-74
2022/04/19 03:19:13;;;;;;;3.90;2.27;;;6.20;56.10;;;;;;933418;149;27356;-74
2022/04/19 03:21:37;;;;;;;2.20;2.00;;;6.10;56.20;;;;;;932046;149;27485;-74
2022/04/19 03:29:34;;;;;;;4.70;2.20;;;6.10;56.30;;;;;;934193;149;27500;-74
2022/04/19 03:32:00;;;;;;;3.57;2.30;;;6.10;56.30;;;;;;930446;149;27965;-75
2022/04/19 03:34:26;;;;;;;2.57;2.20;;;6.10;56.40;;;;;;929802;149;27336;-75
2022/04/19 03:36:53;;;;;;;2.93;2.40;;;6.10;56.50;;;;;;932097;149;27281;-74
2022/04/19 03:39:20;;;;;;;2.10;1.90;;;6.00;56.50;;;;;;933607;149;27445;-74
2022/04/19 03:41:46;;;;;;;2.50;2.30;;;6.00;56.60;;;;;;934050;151;28115;-75
2022/04/19 03:44:13;;;;;;;2.97;1.93;;;6.00;56.60;;;;;;935109;151;27401;-74
2022/04/19 03:49:27;;;;;;;2.30;2.10;;;6.00;56.70;;;;;;933011;152;27449;-75
2022/04/19 03:51:51;;;;;;;2.70;2.20;;;6.00;56.60;;;;;;934006;151;27454;-74
2022/04/19 03:54:17;;;;;;;2.30;2.10;;;5.90;56.80;;;;;;935254;151;27332;-74
2022/04/19 03:56:44;;;;;;;2.43;2.23;;;5.90;56.90;;;;;;934971;152;27447;-75
2022/04/19 03:59:11;;;;;;;1.90;1.80;;;5.90;56.90;;;;;;934714;151;27468;-74
2022/04/19 04:01:38;;;;;;;2.27;2.07;;;5.90;57.00;;;;;;932383;151;27378;-74
2022/04/19 04:04:04;;;;;;;2.67;2.40;;;5.90;57.10;;;;;;934211;152;27395;-74
2022/04/19 04:06:30;;;;;;;2.50;2.30;;;5.90;57.20;;;;;;933827;151;27320;-74
2022/04/19 04:08:57;;;;;;;2.30;2.10;;;5.90;57.30;;;;;;934303;151;27463;-75
2022/04/19 04:11:23;;;;;;;2.57;2.37;;;5.90;57.30;;;;;;935409;152;27386;-74
2022/04/19 04:13:50;;;;;;;2.60;2.40;;;5.90;57.30;;;;;;934279;152;27434;-74
2022/04/19 04:16:17;;;;;;;2.50;2.30;;;6.00;57.40;;;;;;935927;151;27480;-74
2022/04/19 04:18:43;;;;;;;2.67;2.47;;;6.00;57.40;;;;;;932594;152;27353;-74
2022/04/19 04:21:10;;;;;;;2.83;2.50;;;6.00;57.50;;;;;;934860;151;27906;-74
2022/04/19 04:23:36;;;;;;;2.70;2.50;;;6.00;57.50;;;;;;933417;151;27389;-74
2022/04/19 04:26:03;;;;;;;2.63;2.17;;;6.00;57.40;;;;;;934659;151;27449;-75
2022/04/19 04:28:29;;;;;;;2.27;2.13;;;6.00;57.40;;;;;;933679;151;27354;-74
2022/04/19 04:30:56;;;;;;;2.30;2.10;;;6.00;57.50;;;;;;933320;152;27321;-74
2022/04/19 04:33:23;;;;;;;2.40;2.20;;;6.00;57.60;;;;;;932285;152;27367;-74
2022/04/19 04:35:49;;;;;;;2.70;2.50;;;6.00;57.70;;;;;;931473;152;27749;-75
2022/04/19 04:38:16;;;;;;;3.30;2.50;;;6.00;57.60;;;;;;934159;152;27400;-74
2022/04/19 04:40:42;;;;;;;2.63;2.40;;;6.00;57.60;;;;;;934588;151;27478;-74
2022/04/19 04:43:09;;;;;;;2.47;2.27;;;6.00;57.70;;;;;;934984;149;27406;-74
2022/04/19 04:45:36;;;;;;;2.67;2.40;;;6.00;57.90;;;;;;932686;148;27315;-74
2022/04/19 04:50:47;;;;;;;3.50;2.77;;;6.20;58.20;;;;;;931393;149;27467;-75
2022/04/19 04:53:14;;;;;;;4.17;2.40;;;6.20;58.10;;;;;;932722;149;27359;-74
2022/04/19 04:55:41;;;;;;;2.43;2.23;;;6.30;58.40;;;;;;932525;149;27344;-74
2022/04/19 04:58:07;;;;;;;2.77;2.50;;;6.40;58.60;;;;;;932751;149;27369;-74
2022/04/19 05:00:33;;;;;;;3.60;2.50;;;6.60;58.40;;;;;;932317;149;27416;-74
2022/04/19 05:03:00;;;;;;;2.33;2.23;;;6.80;59.20;;;;;;932623;149;27435;-75
2022/04/19 05:05:27;;;;;;;2.80;2.60;;;7.10;59.40;;;;;;932519;149;28362;-74
2022/04/19 05:07:53;;;;;;;3.10;2.40;;;7.40;59.50;;;;;;932885;149;27395;-75
2022/04/19 05:10:20;;;;;;;2.93;2.70;;;7.80;59.60;;;;;;932731;149;27421;-74
2022/04/19 05:12:46;;;;;;;3.63;2.97;;;8.30;59.70;;;;;;933261;149;27326;-74
2022/04/19 05:15:13;;;;;;;3.00;2.60;;;8.70;59.50;;;;;;933462;149;27406;-74
2022/04/19 05:17:40;;;;;;;2.63;2.43;;;9.20;59.40;;;;;;933140;149;27383;-74
2022/04/19 05:20:09;;;;;;;3.33;2.93;;;9.80;59.30;;;;;;930707;149;27315;-74
2022/04/19 05:22:33;;;;;;;3.17;2.80;;;10.30;59.10;;;;;;932623;149;27316;-74
2022/04/19 05:25:00;;;;;;;3.50;3.00;;;11.00;59.00;;;;;;934747;149;27367;-74
2022/04/19 05:27:26;;;;;;;4.03;3.20;;;11.60;58.50;;;;;;933373;149;27402;-74
2022/04/19 05:29:53;;;;;;;3.70;3.40;;;12.30;58.00;;;;;;936043;149;27383;-74
2022/04/19 05:32:20;;;;;;;5.57;4.50;;;13.00;57.50;;;;;;933151;149;27399;-75
2022/04/19 05:34:48;;;;;;;4.00;3.13;;;13.60;56.70;;;;;;933376;149;27807;-75
2022/04/19 05:37:13;;;;;;;2.83;2.63;;;14.30;55.90;;;;;;931990;149;27332;-75
2022/04/19 05:39:39;;;;;;;3.02;2.80;;;15.00;55.30;;;;;;934219;149;27344;-75
2022/04/19 05:42:06;;;;;;;3.40;2.95;;;15.60;54.60;;;;;;932752;149;27524;-75
2022/04/19 05:44:32;;;;;;;3.37;2.77;;;16.30;53.90;;;;;;934751;152;27375;-75
2022/04/19 05:47:00;;;;;;;2.70;2.50;;;16.90;53.10;;;;;;934757;152;27415;-75
2022/04/19 05:49:26;;;;;;;3.20;2.72;;;17.50;52.30;;;;;;933642;152;27447;-75
2022/04/19 05:51:52;;;;;;;2.77;2.58;;;18.10;51.50;;;;;;935343;152;27343;-75
2022/04/19 05:54:19;;;;;;;2.80;2.60;;;18.70;50.70;;;;;;932953;151;27327;-75
2022/04/19 05:56:45;;;;;;;2.67;2.47;;;19.20;50.00;;;;;;933536;152;27442;-75
2022/04/19 05:59:12;;;;;;;4.90;2.87;;;19.70;49.20;;;;;;935469;152;27350;-75
2022/04/19 06:07:08;;;;;;;3.67;2.80;;;21.10;47.10;;;;;;933917;152;27354;-74
2022/04/19 06:09:35;;;;;;;3.35;2.90;;;21.50;46.50;;;;;;933069;152;27337;-74
2022/04/19 06:12:01;;;;;;;4.67;2.60;;;21.90;45.80;;;;;;933440;152;27479;-73
2022/04/19 06:14:28;;;;;;;3.33;2.55;;;22.20;45.10;;;;;;933794;151;27738;-73
2022/04/19 06:16:54;;;;;;;3.87;2.52;;;22.60;44.70;;;;;;934223;151;27505;-74
2022/04/19 06:19:22;;;;;;;2.62;2.33;;;23.00;44.30;;;;;;934481;151;27304;-74
2022/04/19 06:21:48;;;;;;;4.03;3.00;;;23.50;43.90;;;;;;934087;152;27332;-74
2022/04/19 06:24:14;;;;;;;3.65;2.70;;;23.90;43.50;;;;;;934950;151;27362;-74
2022/04/19 06:26:41;;;;;;;2.62;2.42;;;24.40;42.90;;;;;;934625;152;27379;-73
2022/04/19 06:29:07;;;;;;;2.55;2.35;;;24.90;42.40;;;;;;934402;152;27425;-73
2022/04/19 06:31:34;;;;;;;5.42;2.87;;;25.40;41.90;;;;;;935168;151;27352;-73
2022/04/19 06:34:01;;;;;;;2.90;2.60;;;25.90;41.30;;;;;;934100;152;27327;-74
2022/04/19 06:36:27;;;;;;;4.35;2.45;;;26.30;40.70;;;;;;935898;151;27372;-74
2022/04/19 06:38:54;;;;;;;3.30;3.00;;;26.70;40.30;;;;;;934505;152;27460;-74
2022/04/19 06:41:20;;;;;;;3.10;2.80;;;27.20;39.70;;;;;;933040;152;27397;-74
2022/04/19 06:43:47;;;;;;;3.05;2.70;;;27.60;39.10;;;;;;933809;151;27357;-74
2022/04/19 06:46:15;;;;;;;3.22;2.47;;;28.00;38.70;;;;;;932987;152;27348;-74
2022/04/19 06:48:40;;;;;;;2.40;2.20;;;28.40;38.30;;;;;;933368;152;27456;-74
2022/04/19 06:51:09;;;;;;;2.52;2.33;;;28.80;37.60;;;;;;935397;152;27442;-74
2022/04/19 06:53:33;;;;;;;2.72;2.52;;;29.10;37.00;;;;;;932345;152;27356;-74
2022/04/19 06:56:00;;;;;;;2.98;2.70;;;29.50;36.60;;;;;;934074;151;27359;-74
2022/04/19 06:58:26;;;;;;;2.47;2.25;;;29.90;36.30;;;;;;933157;151;27413;-74
2022/04/19 07:00:53;;;;;;;4.50;2.50;;;30.20;35.80;;;;;;935219;152;27374;-75
2022/04/19 07:03:20;;;;;;;2.90;2.62;;;30.50;35.20;;;;;;934471;152;27403;-74
2022/04/19 07:05:46;;;;;;;3.87;2.87;;;30.80;34.80;;;;;;933622;151;27540;-74
2022/04/19 07:08:13;;;;;;;3.45;2.35;;;31.10;34.40;;;;;;932880;152;27300;-74
2022/04/19 07:10:39;;;;;;;2.80;2.37;;;31.40;34.10;;;;;;934628;152;27368;-74
2022/04/19 07:13:06;;;;;;;2.52;2.33;;;31.70;33.70;;;;;;932439;151;27349;-74
2022/04/19 07:15:32;;;;;;;3.00;2.80;;;32.00;33.60;;;;;;933879;151;27352;-74
2022/04/19 07:17:59;;;;;;;2.98;2.77;;;32.30;33.00;;;;;;933956;152;27386;-74
2022/04/19 07:28:40;;;;;;;3.55;3.25;;;33.40;32.00;;;;;;934078;151;27420;-74
2022/04/19 07:31:06;;;;;;;3.20;2.62;;;33.70;31.40;;;;;;935414;151;28010;-74
2022/04/19 07:33:37;;;;;;;3.55;2.40;;;33.90;30.80;;;;;;934543;152;27518;-74
2022/04/19 07:35:59;;;;;;;2.87;2.52;;;34.10;30.40;;;;;;935887;151;27423;-75
2022/04/19 07:38:26;;;;;;;2.83;2.62;;;34.30;30.00;;;;;;934094;151;27372;-75
2022/04/19 07:40:53;;;;;;;2.60;2.40;;;34.50;30.00;;;;;;933849;152;26250;-75
2022/04/19 07:43:19;;;;;;;3.02;2.72;;;34.70;29.60;;;;;;933767;152;27427;-75
2022/04/19 07:45:46;;;;;;;2.92;2.72;;;34.90;29.40;;;;;;936224;151;26355;-74
2022/04/19 07:48:12;;;;;;;3.45;3.15;;;35.20;29.30;;;;;;932792;152;27962;-74
2022/04/19 07:50:39;;;;;;;3.25;2.60;;;35.50;29.00;;;;;;932793;152;27453;-74
2022/04/19 07:53:30;;;;;;;3.40;3.10;;;35.70;28.90;;;;;;934907;151;27437;-75
2022/04/19 07:55:57;;;;;;;3.80;3.50;;;35.90;28.80;;;;;;935062;152;27357;-75
2022/04/19 07:58:23;;;;;;;3.70;3.40;;;36.20;28.70;;;;;;934333;152;26364;-75
2022/04/19 08:00:50;;;;;;;3.20;2.90;;;36.50;28.30;;;;;;935201;151;27399;-75
2022/04/19 08:03:17;;;;;;;3.50;3.20;;;36.70;27.60;;;;;;935902;152;26321;-75
2022/04/19 08:05:43;;;;;;;2.80;2.60;;;36.80;27.50;;;;;;935350;151;28125;-75
2022/04/19 08:08:10;;;;;;;2.85;2.65;;;36.80;27.50;;;;;;937176;151;26307;-75
2022/04/19 08:10:36;;;;;;;2.83;2.62;;;36.90;27.30;;;;;;935306;152;26802;-75
2022/04/19 08:13:06;;;;;;;2.47;2.22;;;37.00;27.20;;;;;;935341;152;26238;-75
2022/04/19 08:15:30;;;;;;;2.45;2.25;;;37.10;27.10;;;;;;935459;152;26378;-75
2022/04/19 08:17:57;;;;;;;3.47;2.45;;;37.20;26.90;;;;;;934428;152;26246;-75
2022/04/19 08:20:23;;;;;;;2.80;2.60;;;37.40;26.70;;;;;;936309;152;26163;-75
2022/04/19 08:22:49;;;;;;;3.45;2.22;;;37.50;26.30;;;;;;934748;151;26376;-75
2022/04/19 08:25:16;;;;;;;2.67;2.45;;;37.70;26.20;;;;;;935054;152;26330;-75
2022/04/19 08:27:45;;;;;;;2.98;1.90;;;37.80;26.00;;;;;;934341;151;26305;-76
2022/04/19 08:30:09;;;;;;;3.17;2.42;;;38.00;26.10;;;;;;933369;152;26805;-76
2022/04/19 08:32:36;;;;;;;2.92;2.72;;;38.10;25.80;;;;;;932769;152;27812;-75
2022/04/19 08:35:02;;;;;;;2.60;2.40;;;38.40;25.60;;;;;;935357;151;26266;-76
2022/04/19 08:37:35;;;;;;;2.58;2.37;;;38.50;25.30;;;;;;934257;152;26285;-75
2022/04/19 08:40:04;;;;;;;2.27;2.12;;;38.60;25.10;;;;;;934445;152;26375;-76
2022/04/19 08:42:32;;;;;;;2.85;2.35;;;38.70;25.10;;;;;;932736;152;26288;-75
2022/04/19 08:44:58;;;;;;;5.03;2.52;;;38.80;25.00;;;;;;932984;152;26277;-75
2022/04/19 08:47:24;;;;;;;2.45;2.35;;;38.90;24.80;;;;;;934770;151;26249;-75
2022/04/19 08:49:51;;;;;;;2.72;2.52;;;39.00;24.50;;;;;;934179;151;26266;-75
2022/04/19 08:52:17;;;;;;;2.25;2.00;;;39.10;24.30;;;;;;933239;151;26343;-76
2022/04/19 08:57:33;;;;;;;2.83;2.42;;;39.20;23.90;;;;;;934542;151;26856;-75
2022/04/19 08:59:59;;;;;;;2.60;2.40;;;39.20;23.80;;;;;;934377;152;26240;-75
2022/04/19 09:02:27;;;;;;;2.62;2.42;;;39.10;23.50;;;;;;919742;151;26284;-75
2022/04/19 09:04:52;;;;;;;2.77;2.58;;;39.10;23.40;;;;;;915381;154;26616;-75
2022/04/19 09:07:18;;;;;;;3.67;2.37;;;39.10;23.20;;;;;;919256;154;26244;-75
2022/04/19 09:09:58;;;;;;;2.85;2.65;;;39.20;23.20;;;;;;918315;154;26834;-75
2022/04/19 09:12:23;;;;;;;2.50;2.30;;;39.20;23.00;;;;;;933162;152;26241;-75
2022/04/19 09:14:59;;;;;;;2.80;2.60;;;39.20;23.00;;;;;;917748;154;26259;-76
2022/04/19 09:17:34;;;;;;;3.60;2.37;;;39.20;22.50;;;;;;917188;154;26239;-76
2022/04/19 09:20:15;;;;;;;3.33;3.02;;;39.10;22.30;;;;;;916414;154;26263;-75
2022/04/19 09:22:40;;;;;;;2.65;2.45;;;38.90;22.00;;;;;;920570;154;26338;-75
2022/04/19 09:25:16;;;;;;;3.02;2.77;;;38.60;22.10;;;;;;919792;154;26405;-75
2022/04/19 09:27:42;;;;;;;3.02;2.83;;;38.40;21.70;;;;;;917609;154;26311;-75
2022/04/19 09:30:18;;;;;;;2.87;2.67;;;38.10;21.60;;;;;;920226;154;26240;-75
2022/04/19 09:33:06;;;;;;;2.90;2.70;;;37.80;21.80;;;;;;917962;154;26238;-75
2022/04/19 09:35:35;;;;;;;2.72;2.50;;;37.50;22.10;;;;;;917674;153;26266;-75
2022/04/19 09:38:02;;;;;;;3.15;2.85;;;37.30;22.40;;;;;;933183;151;26258;-75
2022/04/19 09:40:28;;;;;;;2.92;2.72;;;37.20;22.50;;;;;;918722;154;27500;-75
2022/04/19 09:42:55;;;;;;;3.17;2.98;;;37.20;22.40;;;;;;918696;154;26308;-75
2022/04/19 09:45:24;;;;;;;3.30;3.00;;;37.20;22.20;;;;;;919363;152;26375;-75
2022/04/19 09:47:51;;;;;;;3.55;3.15;;;37.00;21.90;;;;;;930364;151;26335;-75
2022/04/19 09:50:17;;;;;;;3.00;2.80;;;36.80;21.60;;;;;;929222;152;26275;-75
2022/04/19 09:52:50;;;;;;;4.25;3.37;;;36.50;21.70;;;;;;930942;151;27365;-75
2022/04/19 09:55:16;;;;;;;3.45;3.15;;;36.10;21.70;;;;;;934344;152;26234;-75
2022/04/19 09:57:47;;;;;;;3.10;2.90;;;35.80;21.80;;;;;;928393;154;26349;-75
2022/04/19 10:00:09;;;;;;;3.25;2.95;;;35.40;21.70;;;;;;916308;154;27293;-75
2022/04/19 10:08:19;;;;;;;3.30;3.02;;;34.10;21.60;;;;;;915743;154;27526;-75
2022/04/19 10:10:40;;;;;;;3.47;3.17;;;33.50;21.60;;;;;;915433;154;27709;-75
2022/04/19 10:13:07;;;;;;;3.98;3.37;;;33.00;21.70;;;;;;916098;154;27458;-75
2022/04/19 10:15:33;;;;;;;3.70;3.40;;;32.40;21.70;;;;;;918620;153;27380;-75
2022/04/19 10:18:00;;;;;;;3.67;3.37;;;31.80;21.70;;;;;;915987;154;27390;-75
2022/04/19 10:20:32;;;;;;;3.33;3.05;;;31.20;21.90;;;;;;928474;154;27743;-75
2022/04/19 10:22:56;;;;;;;4.05;3.52;;;30.60;22.00;;;;;;913795;155;27420;-75
2022/04/19 10:25:23;;;;;;;3.80;3.42;;;29.90;22.10;;;;;;928309;154;27364;-74
2022/04/19 10:27:49;;;;;;;4.03;3.62;;;29.40;22.40;;;;;;917734;154;27468;-75
2022/04/19 10:30:19;;;;;;;3.85;3.55;;;28.80;22.50;;;;;;916720;154;27386;-75
2022/04/19 10:32:42;;;;;;;3.52;3.22;;;28.40;22.90;;;;;;926233;154;27382;-75
2022/04/19 10:35:10;;;;;;;3.52;3.22;;;27.90;23.10;;;;;;933173;152;27477;-75
2022/04/19 10:37:35;;;;;;;3.22;2.92;;;27.50;23.30;;;;;;933665;151;27354;-74
2022/04/19 10:40:02;;;;;;;3.60;3.30;;;27.10;23.60;;;;;;933456;152;27380;-75
2022/04/19 10:42:30;;;;;;;3.65;3.10;;;26.80;23.80;;;;;;936099;152;27457;-74
2022/04/19 10:44:55;;;;;;;2.87;2.67;;;26.40;23.90;;;;;;932605;151;27401;-75
2022/04/19 10:47:23;;;;;;;3.95;3.65;;;26.20;24.10;;;;;;931371;149;27358;-75
2022/04/19 10:50:06;;;;;;;4.80;3.40;;;26.00;24.40;;;;;;933803;149;27413;-75
2022/04/19 10:52:39;;;;;;;3.25;2.95;;;25.70;24.30;;;;;;931518;149;27495;-75
2022/04/19 10:55:21;;;;;;;3.12;2.62;;;25.40;24.40;;;;;;932750;149;27466;-75
2022/04/19 11:00:35;;;;;;;3.20;2.85;;;24.80;24.80;;;;;;932580;149;27331;-75
2022/04/19 11:03:01;;;;;;;2.87;2.67;;;24.60;25.10;;;;;;932621;149;27467;-74
2022/04/19 11:05:52;;;;;;;4.45;2.80;;;24.40;25.30;;;;;;932930;149;27471;-75
2022/04/19 11:08:30;;;;;;;3.10;2.80;;;24.30;25.40;;;;;;932732;149;27362;-74
2022/04/19 11:10:57;;;;;;;2.98;2.58;;;24.20;25.60;;;;;;935322;149;27656;-75
2022/04/19 11:13:23;;;;;;;2.80;2.60;;;24.10;25.80;;;;;;931194;149;27405;-74
2022/04/19 11:15:59;;;;;;;2.85;2.65;;;24.00;26.00;;;;;;934000;149;27344;-75
2022/04/19 11:18:28;;;;;;;2.40;2.20;;;23.90;26.10;;;;;;924053;149;27411;-74
2022/04/19 11:20:56;;;;;;;3.87;2.52;;;23.70;26.50;;;;;;931969;149;29393;-74
2022/04/19 11:23:22;;;;;;;2.37;2.02;;;23.60;26.00;;;;;;933182;149;27324;-74
2022/04/19 11:25:48;;;;;;;1.90;1.80;;;23.40;26.30;;;;;;933353;149;27795;-75
2022/04/19 11:28:17;;;;;;;1.72;1.62;;;23.30;26.60;;;;;;932745;149;27375;-74
2022/04/19 11:30:50;;;;;;;1.70;1.60;;;23.20;26.30;;;;;;933254;149;27480;-74
2022/04/19 11:33:22;;;;;;;1.70;1.60;;;23.10;26.30;;;;;;931837;149;27361;-74
2022/04/19 11:36:01;;;;;;;2.17;1.30;;;23.00;26.60;;;;;;931757;149;27444;-74
2022/04/19 11:38:27;;;;;;;1.47;1.37;;;22.90;26.50;;;;;;932349;149;27368;-74
2022/04/19 11:49:09;;;;;;;1.60;1.50;;;22.40;27.20;;;;;;933758;149;27384;-74
2022/04/19 11:51:38;;;;;;;1.67;1.57;;;22.30;27.40;;;;;;934358;149;27465;-75
2022/04/19 11:54:04;;;;;;;1.87;1.77;;;22.20;27.40;;;;;;932476;149;27503;-74
2022/04/19 11:56:31;;;;;;;1.70;1.55;;;22.10;27.70;;;;;;930854;149;27383;-74
2022/04/19 11:59:00;;;;;;;2.02;1.82;;;22.10;27.90;;;;;;933117;149;27350;-74
2022/04/19 12:01:27;;;;;;;3.45;1.80;;;22.00;28.20;;;;;;932088;149;27319;-75
2022/04/19 12:03:54;;;;;;;1.90;1.80;;;21.90;28.30;;;;;;933763;149;27487;-74
2022/04/19 12:06:20;;;;;;;2.33;2.12;;;21.90;28.40;;;;;;932198;149;27457;-74
2022/04/19 12:08:49;;;;;;;1.50;1.40;;;21.80;28.40;;;;;;932509;149;27387;-74
2022/04/19 12:11:15;;;;;;;1.70;1.60;;;21.70;28.30;;;;;;932306;149;28043;-75
2022/04/19 12:13:40;;;;;;;1.90;1.80;;;21.60;28.50;;;;;;932246;149;27962;-75
2022/04/19 12:16:09;;;;;;;1.50;1.40;;;21.50;28.60;;;;;;933291;149;27331;-74
2022/04/19 12:18:38;;;;;;;1.40;1.30;;;21.50;28.70;;;;;;932747;149;27402;-74
2022/04/19 12:21:04;;;;;;;1.52;1.42;;;21.50;28.80;;;;;;932154;149;27330;-74
2022/04/19 12:23:31;;;;;;;2.02;1.75;;;21.50;29.20;;;;;;933025;149;27421;-74
2022/04/19 12:26:06;;;;;;;1.57;1.47;;;21.50;29.10;;;;;;934583;149;27377;-74
2022/04/19 12:28:42;;;;;;;1.65;1.12;;;21.50;29.00;;;;;;931843;149;27489;-74
2022/04/19 12:31:08;;;;;;;2.52;1.60;;;21.50;29.00;;;;;;931213;149;27369;-74
2022/04/19 12:33:34;;;;;;;1.80;1.50;;;21.50;29.10;;;;;;932158;149;27367;-74
2022/04/19 12:36:01;;;;;;;1.72;1.60;;;21.50;29.10;;;;;;933205;149;27458;-74
2022/04/19 12:38:33;;;;;;;4.12;1.57;;;21.50;29.30;;;;;;930705;149;27375;-75
2022/04/19 12:40:58;;;;;;;1.32;1.22;;;21.50;29.30;;;;;;931664;149;27394;-75
2022/04/19 12:43:42;;;;;;;1.15;1.15;;;21.50;29.30;;;;;;933216;149;27304;-74
2022/04/19 12:46:08;;;;;;;1.30;1.20;;;21.50;29.30;;;;;;933238;149;27370;-74
2022/04/19 12:48:35;;;;;;;1.15;1.00;;;21.50;29.50;;;;;;931432;152;27340;-75
2022/04/19 12:51:01;;;;;;;0.85;0.85;;;21.40;29.40;;;;;;936423;152;27385;-74
2022/04/19 12:53:28;;;;;;;1.47;1.20;;;21.40;29.40;;;;;;933342;151;27349;-75
2022/04/19 12:55:54;;;;;;;1.00;0.82;;;21.40;29.60;;;;;;933288;152;27863;-74
2022/04/19 12:58:21;;;;;;;1.07;1.02;;;21.40;29.60;;;;;;932611;152;27302;-75
2022/04/19 13:00:48;;;;;;;0.88;0.88;;;21.40;29.50;;;;;;935017;152;27351;-74
2022/04/19 13:03:16;;;;;;;1.40;1.30;;;21.40;29.80;;;;;;934821;151;27371;-74
2022/04/19 13:13:55;;;;;;;1.25;0.90;;;21.30;29.80;;;;;;933724;152;27366;-74
2022/04/19 13:16:21;;;;;;;2.12;0.98;;;21.30;29.60;;;;;;933981;151;27410;-75
2022/04/19 13:18:48;;;;;;;0.78;0.78;;;21.20;29.60;;;;;;931947;152;27468;-75
2022/04/19 13:21:14;;;;;;;0.70;0.70;;;21.20;29.70;;;;;;934610;152;27355;-74
2022/04/19 13:23:41;;;;;;;1.10;1.00;;;21.20;29.60;;;;;;933992;152;27351;-75
2022/04/19 13:26:07;;;;;;;1.00;0.90;;;21.20;29.80;;;;;;934235;151;27651;-74
2022/04/19 13:28:35;;;;;;;0.93;0.93;;;21.20;29.80;;;;;;933954;151;27352;-75
2022/04/19 13:31:01;;;;;;;1.37;1.10;;;21.30;30.00;;;;;;934496;152;27362;-74
2022/04/19 13:33:27;;;;;;;0.80;0.80;;;21.20;30.00;;;;;;934245;151;27482;-74
2022/04/19 13:35:54;;;;;;;1.27;1.17;;;21.30;29.90;;;;;;935286;151;27324;-74
2022/04/19 13:38:23;;;;;;;1.02;1.02;;;21.30;29.90;;;;;;934145;152;27336;-75
2022/04/19 13:40:50;;;;;;;1.30;1.00;;;21.30;29.90;;;;;;932684;152;27403;-74
2022/04/19 13:43:16;;;;;;;1.65;1.00;;;21.30;30.00;;;;;;931812;152;27366;-75
2022/04/19 13:45:43;;;;;;;0.95;0.95;;;21.30;30.00;;;;;;934940;152;27485;-74